Saint Patrick, Missouri
Current Conditions -  °F | °C
As of 1:55 PM on Friday 24 Oct 2014 (Local Time) from KEOK Reporting Station
Haze Haze  
Wind Chill: 57°   Ceiling: 300
Heat Index: 57°   Visibility: 3mi
Dew Point: 57°   Wind: 9mph
Humidity: 100%   Direction: 180°S
Pressure: 30.01"   Gusts: 16mph
Location:  40.26°N, 91.63°W
Report Text: KEOK 241855Z AUTO 18008G14KT 3SM BR OVC003 14/14 A3001 RMK AO2
Loading
Personal Weather Stations






























Interactive Weather Map
Tropical Storm Tracking
New forecast layout! Learn more

10-Day Weather Forecast

Advertisements
Track Severe Weather on mobile